Time;durP1;ratioP1;P1;durP2;ratioP2;P2;SDS_P1;SDS_P2;PMS_P1;PMS_P2;Temp;Humidity;BMP_temperature;BMP_pressure;BME280_temperature;BME280_humidity;BME280_pressure;Samples;Min_cycle;Max_cycle;Signal;HPM_P1;HPM_P2
2023/06/27 13:58:09;;;;;;;;;;;;;;;;;;5038971;28;20350;-40
2023/06/27 14:00:35;;;;;;;;;;;;;;;;;;5029764;28;20059;-34
2023/06/27 14:03:01;;;;;;;;;;;;;;;;;;5028509;28;19968;-38
2023/06/27 14:05:27;;;;;;;;;;;;;;;;;;5029791;28;19970;-35
2023/06/27 14:07:54;;;;;;;;;;;;;;;;;;5020968;28;20075;-41
2023/06/27 14:10:21;;;;;;;;;;;;;;;;;;5027237;28;19964;-35
2023/06/27 14:12:47;;;;;;;;;;;;;;;;;;5021549;28;19969;-38
2023/06/27 14:15:13;;;;;;;;;;;;;;;;;;5028321;28;19975;-35
2023/06/27 14:17:39;;;;;;;;;;;;;;;;;;5025006;28;19988;-36
2023/06/27 14:20:05;;;;;;;;;;;;;;;;;;5023969;28;19961;-34
2023/06/27 14:22:31;;;;;;;;;;;;;;;;;;5025251;28;20577;-35
2023/06/27 14:24:57;;;;;;;;;;;;;;;;;;5025478;28;20051;-35
2023/06/27 14:27:23;;;;;;;;;;;;;;;;;;5026010;28;19960;-35
2023/06/27 14:29:49;;;;;;;;;;;;;;;;;;5025963;28;19976;-39
2023/06/27 14:32:15;;;;;;;;;;;;;;;;;;5025003;28;19972;-35
2023/06/27 14:34:40;;;;;;;;;;;;;;;;;;5026310;28;20298;-35
2023/06/27 14:37:06;;;;;;;;;;;;;;;;;;5058007;28;20621;-35
2023/06/27 14:39:32;;;;;;;;;;;;;;;;;;5026031;28;19971;-35
2023/06/27 14:41:58;;;;;;;;;;;;;;;;;;5025187;28;19975;-34
2023/06/27 14:44:24;;;;;;;;;;;;;;;;;;5021716;28;19971;-34
2023/06/27 14:46:50;;;;;;;;;;;;;;;;;;5023113;28;19965;-35
2023/06/27 14:49:16;;;;;;;;;;;;;;;;;;5025536;28;20087;-35
2023/06/27 14:51:42;;;;;;;;;;;;;;;;;;5025279;28;19965;-35
2023/06/27 14:54:08;;;;;;;;;;;;;;;;;;5026712;28;19968;-35
2023/06/27 14:56:34;;;;;;;;;;;;;;;;;;5033483;28;20702;-34
2023/06/27 14:59:00;;;;;;;;;;;;;;;;;;5045494;28;19960;-34
2023/06/27 15:01:26;;;;;;;;;;;;;;;;;;5045710;28;19960;-34
2023/06/27 15:03:52;;;;;;;;;;;;;;;;;;5046075;28;19967;-34
2023/06/27 15:06:18;;;;;;;;;;;;;;;;;;5048339;28;19967;-34
2023/06/27 15:08:45;;;;;;;;;;;;;;;;;;5041889;28;19956;-34
2023/06/27 15:11:11;;;;;;;;;;;;;;;;;;5035038;28;19964;-40
2023/06/27 15:13:37;;;;;;;;;;;;;;;;;;5034042;28;20450;-34
2023/06/27 15:16:03;;;;;;;;;;;;;;;;;;5031226;28;19987;-35
2023/06/27 15:18:29;;;;;;;;;;;;;;;;;;5031830;28;20047;-35
2023/06/27 15:20:55;;;;;;;;;;;;;;;;;;5032976;28;19968;-38
2023/06/27 15:23:21;;;;;;;;;;;;;;;;;;5032440;28;20007;-34
2023/06/27 15:25:47;;;;;;;;;;;;;;;;;;5033507;28;19972;-35
2023/06/27 15:28:13;;;;;;;;;;;;;;;;;;5031919;28;19956;-35
2023/06/27 15:30:39;;;;;;;;;;;;;;;;;;5033313;28;20728;-44
2023/06/27 15:33:04;;;;;;;;;;;;;;;;;;5033533;28;19972;-34
2023/06/27 15:35:30;;;;;;;;;;;;;;;;;;5031213;28;19960;-33
2023/06/27 15:47:51;;;;;;;;;;;;;;;;;;5105813;27;20387;-48
2023/06/27 15:50:17;;;;;;;;;;;;;;;;;;5106359;28;19971;-39
2023/06/27 15:52:43;;;;;;;;;;;;;;;;;;5102729;28;19963;-51
2023/06/27 15:55:09;;;;;;;;;;;;;;;;;;5102728;28;20751;-49
2023/06/27 15:57:34;;;;;;;;;;;;;;;;;;5101637;28;19981;-46
2023/06/27 16:00:00;;;;;;;;;;;;;;;;;;5105788;28;19998;-47
2023/06/27 16:02:26;;;;;;;;;;;;;;;;;;5104904;28;20002;-42
2023/06/27 16:06:36;;;;;;;;;;;;;;;;;;5086997;27;19980;-47
2023/06/27 16:09:03;;;;;;;;;;;;;;;;;;5083656;28;19968;-40
2023/06/27 16:11:29;;;;;;;;;;;;;;;;;;5083611;28;20014;-40
2023/06/27 16:13:54;;;;;;;;;;;;;;;;;;5085226;28;20390;-42
2023/06/27 16:16:23;;;;;;;;;;;;;;;;;;5084010;28;20729;-45
2023/06/27 16:18:49;;;;;;;;;;;;;;;;;;5082879;28;19963;-39
2023/06/27 16:21:15;;;;;;;;;;;;;;;;;;5086468;28;19964;-40
2023/06/27 16:23:41;;;;;;;;;;;;;;;;;;5087513;28;19964;-44
2023/06/27 16:26:07;;;;;;;;;;;;;;;;;;5085276;28;20047;-45
2023/06/27 16:28:33;;;;;;;;;;;;;;;;;;5089003;28;20481;-52
2023/06/27 16:30:59;;;;;;;;;;;;;;;;;;5089054;28;19974;-44
2023/06/27 16:33:25;;;;;;;;;;;;;;;;;;5089418;28;20432;-49
2023/06/27 16:35:51;;;;;;;;;;;;;;;;;;5085152;28;20018;-48
2023/06/27 16:38:17;;;;;;;;;;;;;;;;;;5084121;28;19971;-46
2023/06/27 16:40:43;;;;;;;;;;;;;;;;;;5083661;28;19964;-43
2023/06/27 16:43:09;;;;;;;;;;;;;;;;;;5087024;28;19978;-39
2023/06/27 16:45:34;;;;;;;;;;;;;;;;;;5086237;28;19979;-39
2023/06/27 16:48:00;;;;;;;;;;;;;;;;;;5087486;28;19968;-42
2023/06/27 16:50:26;;;;;;;;;;;;;;;;;;5086856;28;19964;-43
2023/06/27 16:52:52;;;;;;;;;;;;;;;;;;5088094;28;19963;-44
2023/06/27 16:55:18;;;;;;;;;;;;;;;;;;5088015;28;19967;-44
2023/06/27 16:57:44;;;;;;;;;;;;;;;;;;5088147;28;20042;-43
2023/06/27 17:00:11;;;;;;;;;;;;;;;;;;5084380;28;20666;-44
2023/06/27 17:02:37;;;;;;;;;;;;;;;;;;5085834;28;19974;-45
2023/06/27 17:05:03;;;;;;;;;;;;;;;;;;5083011;28;19991;-44
2023/06/27 17:07:29;;;;;;;;;;;;;;;;;;5085080;28;20373;-45
2023/06/27 17:09:55;;;;;;;;;;;;;;;;;;5084919;28;19963;-40
2023/06/27 17:12:21;;;;;;;;;;;;;;;;;;5085786;28;19978;-42
2023/06/27 17:14:47;;;;;;;;;;;;;;;;;;5085681;28;20638;-44
2023/06/27 17:17:13;;;;;;;;;;;;;;;;;;5070290;28;20478;-43
2023/06/27 17:19:39;;;;;;;;;;;;;;;;;;5070681;28;20014;-43
2023/06/27 17:22:05;;;;;;;;;;;;;;;;;;5066811;28;19963;-40
2023/06/27 17:24:31;;;;;;;;;;;;;;;;;;5063091;28;20027;-40
2023/06/27 17:26:56;;;;;;;;;;;;;;;;;;5067766;28;20781;-40
2023/06/27 17:29:23;;;;;;;;;;;;;;;;;;5070804;28;20706;-40
2023/06/27 17:31:49;;;;;;;;;;;;;;;;;;5067623;28;20424;-39
2023/06/27 17:34:15;;;;;;;;;;;;;;;;;;5073192;28;19964;-41
2023/06/27 17:36:41;;;;;;;;;;;;;;;;;;5068187;28;19963;-39
2023/06/27 17:39:06;;;;;;;;;;;;;;;;;;5069655;28;20046;-39
2023/06/27 17:41:32;;;;;;;;;;;;;;;;;;5065740;28;20010;-39
2023/06/27 17:43:58;;;;;;;;;;;;;;;;;;5067725;28;20361;-39
2023/06/27 17:46:24;;;;;;;;;;;;;;;;;;5071393;28;19988;-39
2023/06/27 17:48:50;;;;;;;;;;;;;;;;;;5067255;28;20022;-39
2023/06/27 17:51:16;;;;;;;;;;;;;;;;;;5067518;28;20455;-40
2023/06/27 17:53:42;;;;;;;;;;;;;;;;;;5066934;28;20025;-39
2023/06/27 17:56:08;;;;;;;;;;;;;;;;;;5073208;28;19972;-39
2023/06/27 17:58:34;;;;;;;;;;;;;;;;;;5066365;28;19967;-39
2023/06/27 18:01:04;;;;;;;;;;;;;;;;;;5067373;28;19978;-52
2023/06/27 18:03:30;;;;;;;;;;;;;;;;;;5068745;28;20017;-47
2023/06/27 18:05:56;;;;;;;;;;;;;;;;;;5067777;28;20501;-55
2023/06/27 18:08:23;;;;;;;;;;;;;;;;;;5072053;28;20003;-49
2023/06/27 18:10:49;;;;;;;;;;;;;;;;;;5068301;28;19970;-50
2023/06/27 18:13:15;;;;;;;;;;;;;;;;;;5070834;28;20066;-45
2023/06/27 18:15:41;;;;;;;;;;;;;;;;;;5068120;28;19968;-54
2023/06/27 18:18:08;;;;;;;;;;;;;;;;;;5072951;28;20493;-34
2023/06/27 18:20:34;;;;;;;;;;;;;;;;;;5066151;28;20012;-37
2023/06/27 18:23:01;;;;;;;;;;;;;;;;;;5070183;28;20533;-36
2023/06/27 18:25:27;;;;;;;;;;;;;;;;;;5069775;28;20074;-36
2023/06/27 18:27:53;;;;;;;;;;;;;;;;;;5068239;28;20027;-36
2023/06/27 18:30:19;;;;;;;;;;;;;;;;;;5065380;28;20391;-36
2023/06/27 18:32:45;;;;;;;;;;;;;;;;;;5067803;28;19985;-37
2023/06/27 18:35:11;;;;;;;;;;;;;;;;;;5071487;28;19956;-35
2023/06/27 18:37:37;;;;;;;;;;;;;;;;;;5069809;28;19978;-35
2023/06/27 18:40:03;;;;;;;;;;;;;;;;;;5072263;28;19970;-36
2023/06/27 18:42:29;;;;;;;;;;;;;;;;;;5082132;22;19966;-68
2023/06/27 18:44:55;;;;;;;;;;;;;;;;;;5058138;28;19990;-70
2023/06/27 18:47:21;;;;;;;;;;;;;;;;;;5048403;28;19968;-70
2023/06/27 18:49:47;;;;;;;;;;;;;;;;;;5064633;28;19967;-70
2023/06/27 18:52:13;;;;;;;;;;;;;;;;;;5071684;28;20459;-70
2023/06/27 18:54:38;;;;;;;;;;;;;;;;;;5072598;28;19955;-71
2023/06/27 18:57:06;;;;;;;;;;;;;;;;;;5073638;28;20013;-73
2023/06/27 18:59:31;;;;;;;;;;;;;;;;;;5072585;28;19999;-71
2023/06/27 19:01:57;;;;;;;;;;;;;;;;;;5073207;28;19970;-70
2023/06/27 19:04:25;;;;;;;;;;;;;;;;;;5070312;28;19966;-69
2023/06/27 19:06:51;;;;;;;;;;;;;;;;;;5074037;28;20366;-71
2023/06/27 19:09:17;;;;;;;;;;;;;;;;;;5074744;28;20050;-71
2023/06/27 19:11:43;;;;;;;;;;;;;;;;;;5049658;28;20554;-69
2023/06/27 19:14:09;;;;;;;;;;;;;;;;;;5067892;28;20062;-69
2023/06/27 19:16:34;;;;;;;;;;;;;;;;;;5067346;28;20008;-67
2023/06/27 19:19:00;;;;;;;;;;;;;;;;;;5069581;28;19968;-67
2023/06/27 19:21:26;;;;;;;;;;;;;;;;;;5071630;28;20447;-67
2023/06/27 19:23:52;;;;;;;;;;;;;;;;;;5066575;28;20447;-68
2023/06/27 19:26:18;;;;;;;;;;;;;;;;;;5066967;28;20320;-69
2023/06/27 19:28:45;;;;;;;;;;;;;;;;;;5068887;28;19967;-67
2023/06/27 19:31:11;;;;;;;;;;;;;;;;;;5058595;28;20390;-67
2023/06/27 19:33:36;;;;;;;;;;;;;;;;;;5070050;28;19962;-70
2023/06/27 19:36:05;;;;;;;;;;;;;;;;;;5070147;28;19971;-69
2023/06/27 19:38:31;;;;;;;;;;;;;;;;;;5072311;28;20025;-70
2023/06/27 19:40:57;;;;;;;;;;;;;;;;;;5072546;28;20054;-69
2023/06/27 19:43:23;;;;;;;;;;;;;;;;;;5072853;28;20058;-70
2023/06/27 19:45:49;;;;;;;;;;;;;;;;;;5072884;28;20451;-69
2023/06/27 19:48:15;;;;;;;;;;;;;;;;;;5072397;28;20009;-69
2023/06/27 19:50:41;;;;;;;;;;;;;;;;;;5084319;28;19967;-69
2023/06/27 19:53:07;;;;;;;;;;;;;;;;;;5077735;28;20038;-69
2023/06/27 19:55:32;;;;;;;;;;;;;;;;;;5073102;28;19993;-68
2023/06/27 19:57:58;;;;;;;;;;;;;;;;;;5081237;28;20503;-68
2023/06/27 20:00:24;;;;;;;;;;;;;;;;;;5085191;28;20452;-68
2023/06/27 20:02:50;;;;;;;;;;;;;;;;;;5075645;28;19968;-68
2023/06/27 20:05:16;;;;;;;;;;;;;;;;;;5072795;28;20372;-68
2023/06/27 20:07:42;;;;;;;;;;;;;;;;;;5079309;28;20485;-68
2023/06/27 20:10:08;;;;;;;;;;;;;;;;;;5081241;28;19975;-68
2023/06/27 20:12:34;;;;;;;;;;;;;;;;;;5071500;28;20007;-67
2023/06/27 20:15:00;;;;;;;;;;;;;;;;;;5076760;28;20006;-67
2023/06/27 20:17:26;;;;;;;;;;;;;;;;;;5080049;28;19963;-67
2023/06/27 20:19:52;;;;;;;;;;;;;;;;;;5072598;28;19975;-67
2023/06/27 20:22:18;;;;;;;;;;;;;;;;;;5082373;28;19963;-67
2023/06/27 20:24:44;;;;;;;;;;;;;;;;;;5081315;28;20004;-68
2023/06/27 20:27:10;;;;;;;;;;;;;;;;;;5080225;28;20470;-67
2023/06/27 20:29:36;;;;;;;;;;;;;;;;;;5075129;28;19972;-67
2023/06/27 20:32:01;;;;;;;;;;;;;;;;;;5080655;28;19970;-67
2023/06/27 20:34:28;;;;;;;;;;;;;;;;;;5080111;28;19974;-69
2023/06/27 20:36:54;;;;;;;;;;;;;;;;;;5081353;28;19968;-67
2023/06/27 20:39:20;;;;;;;;;;;;;;;;;;5088009;28;19973;-68
2023/06/27 20:41:46;;;;;;;;;;;;;;;;;;5082539;28;19971;-69
2023/06/27 20:44:13;;;;;;;;;;;;;;;;;;5074680;28;20022;-69
2023/06/27 20:46:39;;;;;;;;;;;;;;;;;;5077944;28;19982;-69
2023/06/27 20:49:05;;;;;;;;;;;;;;;;;;5077320;28;19971;-68
2023/06/27 20:51:32;;;;;;;;;;;;;;;;;;5073464;28;19972;-68
2023/06/27 20:53:58;;;;;;;;;;;;;;;;;;5088027;28;19974;-71
2023/06/27 20:56:24;;;;;;;;;;;;;;;;;;5086275;28;19971;-68
2023/06/27 20:58:50;;;;;;;;;;;;;;;;;;5084580;28;19967;-69
2023/06/27 21:01:16;;;;;;;;;;;;;;;;;;5078938;28;20026;-67
2023/06/27 21:03:41;;;;;;;;;;;;;;;;;;5080741;28;19971;-66
2023/06/27 21:06:07;;;;;;;;;;;;;;;;;;5079990;28;19983;-66
2023/06/27 21:08:33;;;;;;;;;;;;;;;;;;5077336;28;19968;-67
2023/06/27 21:10:59;;;;;;;;;;;;;;;;;;5089380;28;20442;-67
2023/06/27 21:13:26;;;;;;;;;;;;;;;;;;5078479;28;20706;-67
2023/06/27 21:15:52;;;;;;;;;;;;;;;;;;5077538;28;19964;-66
2023/06/27 21:18:18;;;;;;;;;;;;;;;;;;5076851;28;19967;-66
2023/06/27 21:20:44;;;;;;;;;;;;;;;;;;5076181;28;20036;-67
2023/06/27 21:23:09;;;;;;;;;;;;;;;;;;5082475;28;19959;-67
2023/06/27 21:25:35;;;;;;;;;;;;;;;;;;5079544;28;19980;-67
2023/06/27 21:28:01;;;;;;;;;;;;;;;;;;5078438;28;19974;-68
2023/06/27 21:30:27;;;;;;;;;;;;;;;;;;5073394;28;19974;-66
2023/06/27 21:32:53;;;;;;;;;;;;;;;;;;5077335;28;19971;-67
2023/06/27 21:35:19;;;;;;;;;;;;;;;;;;5075599;28;20090;-68
2023/06/27 21:37:45;;;;;;;;;;;;;;;;;;5072785;28;19964;-63
2023/06/27 21:40:11;;;;;;;;;;;;;;;;;;5078761;28;19974;-61
2023/06/27 21:42:37;;;;;;;;;;;;;;;;;;5084108;28;19992;-63
2023/06/27 21:45:03;;;;;;;;;;;;;;;;;;5073709;28;20007;-64
2023/06/27 21:47:29;;;;;;;;;;;;;;;;;;5070245;28;19963;-70
2023/06/27 21:49:55;;;;;;;;;;;;;;;;;;5057841;28;19971;-67
2023/06/27 21:52:21;;;;;;;;;;;;;;;;;;5059934;28;20017;-66
2023/06/27 21:54:47;;;;;;;;;;;;;;;;;;5069106;28;20423;-67
2023/06/27 21:57:14;;;;;;;;;;;;;;;;;;5069599;28;20419;-63
2023/06/27 21:59:40;;;;;;;;;;;;;;;;;;5070466;28;20451;-62
2023/06/27 22:02:06;;;;;;;;;;;;;;;;;;5073011;28;20021;-62
2023/06/27 22:04:32;;;;;;;;;;;;;;;;;;5072930;28;19971;-63
2023/06/27 22:06:58;;;;;;;;;;;;;;;;;;5073178;28;20382;-62
2023/06/27 22:09:24;;;;;;;;;;;;;;;;;;5069178;28;20058;-60
2023/06/27 22:11:50;;;;;;;;;;;;;;;;;;5067868;28;20321;-59
2023/06/27 22:14:16;;;;;;;;;;;;;;;;;;5069464;28;19971;-63
2023/06/27 22:16:42;;;;;;;;;;;;;;;;;;5053116;28;19967;-63
2023/06/27 22:19:08;;;;;;;;;;;;;;;;;;5062563;28;20667;-62
2023/06/27 22:21:34;;;;;;;;;;;;;;;;;;5063955;28;20018;-62
2023/06/27 22:23:59;;;;;;;;;;;;;;;;;;5060469;28;20027;-64
2023/06/27 22:26:25;;;;;;;;;;;;;;;;;;5069954;28;20074;-69
2023/06/27 22:28:51;;;;;;;;;;;;;;;;;;5065177;28;19960;-63
2023/06/27 22:31:17;;;;;;;;;;;;;;;;;;5068925;28;19968;-63
2023/06/27 22:33:43;;;;;;;;;;;;;;;;;;5071249;28;19959;-62
2023/06/27 22:36:09;;;;;;;;;;;;;;;;;;5059470;28;19971;-63
2023/06/27 22:38:35;;;;;;;;;;;;;;;;;;5070944;28;20507;-62
2023/06/27 22:41:01;;;;;;;;;;;;;;;;;;5072783;28;20444;-61
2023/06/27 22:43:27;;;;;;;;;;;;;;;;;;5065559;28;19994;-60
2023/06/27 22:45:53;;;;;;;;;;;;;;;;;;5071430;28;19987;-61
2023/06/27 22:48:19;;;;;;;;;;;;;;;;;;5079682;28;20050;-60
2023/06/27 22:50:45;;;;;;;;;;;;;;;;;;5076076;28;19985;-61
2023/06/27 22:53:11;;;;;;;;;;;;;;;;;;5070363;28;20379;-60
2023/06/27 22:55:36;;;;;;;;;;;;;;;;;;5071195;28;20466;-60
2023/06/27 22:58:02;;;;;;;;;;;;;;;;;;5074103;28;20034;-61
2023/06/27 23:00:28;;;;;;;;;;;;;;;;;;5052814;28;20021;-63
2023/06/27 23:02:54;;;;;;;;;;;;;;;;;;5064359;28;19968;-62
2023/06/27 23:05:20;;;;;;;;;;;;;;;;;;5056603;28;20066;-59
2023/06/27 23:07:46;;;;;;;;;;;;;;;;;;5067331;28;19967;-61
2023/06/27 23:10:12;;;;;;;;;;;;;;;;;;5068288;28;19963;-61
2023/06/27 23:12:38;;;;;;;;;;;;;;;;;;5068581;28;19968;-60
2023/06/27 23:15:04;;;;;;;;;;;;;;;;;;5059568;28;19968;-62
2023/06/27 23:17:33;;;;;;;;;;;;;;;;;;5068589;28;19978;-60
2023/06/27 23:20:04;;;;;;;;;;;;;;;;;;5075017;28;20006;-61
2023/06/27 23:22:33;;;;;;;;;;;;;;;;;;5075882;28;20355;-62
2023/06/27 23:25:00;;;;;;;;;;;;;;;;;;5067623;28;19987;-61
2023/06/27 23:27:26;;;;;;;;;;;;;;;;;;5068039;28;19964;-61
2023/06/27 23:29:52;;;;;;;;;;;;;;;;;;5069256;28;19967;-61
2023/06/27 23:32:19;;;;;;;;;;;;;;;;;;5070297;28;19960;-62
2023/06/27 23:34:45;;;;;;;;;;;;;;;;;;5073777;28;19967;-61
2023/06/27 23:37:11;;;;;;;;;;;;;;;;;;5073031;28;19956;-62
2023/06/27 23:39:37;;;;;;;;;;;;;;;;;;5073897;28;19978;-61
2023/06/27 23:42:02;;;;;;;;;;;;;;;;;;5078619;28;19963;-60
2023/06/27 23:44:28;;;;;;;;;;;;;;;;;;5072027;28;19988;-55
2023/06/27 23:46:54;;;;;;;;;;;;;;;;;;5074469;28;20078;-61
2023/06/27 23:49:20;;;;;;;;;;;;;;;;;;5068191;28;19964;-62
2023/06/27 23:51:46;;;;;;;;;;;;;;;;;;5070009;28;19963;-62
2023/06/27 23:54:12;;;;;;;;;;;;;;;;;;5078138;28;20176;-64
2023/06/27 23:56:38;;;;;;;;;;;;;;;;;;5084027;28;20005;-64
2023/06/27 23:59:04;;;;;;;;;;;;;;;;;;5073591;28;19963;-64
